createdAt,value
2023-01-04T00:01:39.441Z,101501.43
2023-01-04T00:04:08.057Z,101501.41
2023-01-04T00:06:36.675Z,101498.52
2023-01-04T00:09:05.331Z,101495.24
2023-01-04T00:11:40.003Z,101494.42
2023-01-04T00:14:12.011Z,101506.48
2023-01-04T00:16:40.607Z,101503.73
2023-01-04T00:19:11.784Z,101498.75
2023-01-04T00:21:40.456Z,101498.05
2023-01-04T00:24:10.218Z,101484.13
2023-01-04T00:26:38.993Z,101477.65
2023-01-04T00:29:08.392Z,101474.17
2023-01-04T00:31:37.119Z,101474.27
2023-01-04T00:34:06.798Z,101468.53
2023-01-04T00:36:35.422Z,101466.55
2023-01-04T00:39:14.689Z,101469.05
2023-01-04T00:42:00.140Z,101462.14
2023-01-04T00:44:30.584Z,101464.86
2023-01-04T00:47:01.551Z,101470.23
2023-01-04T00:49:31.609Z,101472.40
2023-01-04T00:52:00.531Z,101475.85
2023-01-04T00:54:29.309Z,101478.67
2023-01-04T00:56:58.731Z,101475.77
2023-01-04T00:59:27.840Z,101479.63
2023-01-04T01:01:56.570Z,101475.48
2023-01-04T01:04:25.798Z,101475.35
2023-01-04T01:06:54.604Z,101475.41
2023-01-04T01:09:23.573Z,101477.41
2023-01-04T01:12:26.065Z,101476.86
2023-01-04T01:15:00.137Z,101475.35
2023-01-04T01:17:29.141Z,101477.58
2023-01-04T01:19:57.654Z,101480.88
2023-01-04T01:22:26.537Z,101478.48
2023-01-04T01:24:55.129Z,101476.54
2023-01-04T01:27:23.849Z,101480.55
2023-01-04T01:29:52.342Z,101479.79
2023-01-04T01:32:20.849Z,101477.08
2023-01-04T01:34:49.319Z,101474.24
2023-01-04T01:37:17.914Z,101471.70
2023-01-04T01:39:46.469Z,101477.73
2023-01-04T01:42:23.709Z,101473.63
2023-01-04T01:45:11.339Z,101463.65
2023-01-04T01:47:45.584Z,101459.66
2023-01-04T01:50:22.850Z,101459.34
2023-01-04T01:52:54.200Z,101453.04
2023-01-04T01:55:23.746Z,101445.61
2023-01-04T01:57:54.913Z,101433.09
2023-01-04T02:00:23.476Z,101424.20
2023-01-04T02:02:52.154Z,101421.26
2023-01-04T02:05:21.789Z,101419.35
2023-01-04T02:07:51.277Z,101415.15
2023-01-04T02:10:44.972Z,101411.23
2023-01-04T02:13:17.774Z,101407.05
2023-01-04T02:16:15.417Z,101403.65
2023-01-04T02:18:59.980Z,101399.80
2023-01-04T02:22:09.870Z,101395.42
2023-01-04T02:25:08.481Z,101384.26
2023-01-04T02:27:42.871Z,101382.11
2023-01-04T02:30:45.332Z,101381.05
2023-01-04T02:33:32.625Z,101372.52
2023-01-04T02:36:06.909Z,101367.60
2023-01-04T02:38:43.961Z,101367.14
2023-01-04T02:41:33.720Z,101362.79
2023-01-04T02:44:29.999Z,101352.63
2023-01-04T02:47:03.456Z,101351.27
2023-01-04T02:49:50.662Z,101349.44
2023-01-04T02:52:20.823Z,101346.38
2023-01-04T02:54:53.300Z,101338.19
2023-01-04T02:57:24.278Z,101326.98
2023-01-04T03:00:14.763Z,101320.27
2023-01-04T03:03:27.200Z,101318.97
2023-01-04T03:06:27.333Z,101310.67
2023-01-04T03:09:05.967Z,101322.14
2023-01-04T03:12:02.851Z,101321.98
2023-01-04T03:14:41.727Z,101319.64
2023-01-04T03:17:16.235Z,101322.29
2023-01-04T03:19:57.305Z,101316.35
2023-01-04T03:22:59.833Z,101305.77
2023-01-04T03:26:08.259Z,101307.13
2023-01-04T03:28:58.007Z,101294.26
2023-01-04T03:31:52.056Z,101294.96
2023-01-04T03:34:39.924Z,101293.88
2023-01-04T03:38:12.911Z,101286.27
2023-01-04T03:41:05.672Z,101276.25
2023-01-04T03:44:31.143Z,101276.48
2023-01-04T03:47:31.812Z,101280.83
2023-01-04T03:50:11.233Z,101263.33
2023-01-04T03:52:41.728Z,101269.43
2023-01-04T03:55:12.323Z,101266.41
2023-01-04T03:57:42.265Z,101258.17
2023-01-04T04:00:14.917Z,101262.85
2023-01-04T04:02:46.609Z,101264.21
2023-01-04T04:05:43.434Z,101265.03
2023-01-04T04:08:28.476Z,101264.20
2023-01-04T04:11:23.153Z,101266.86
2023-01-04T04:13:51.777Z,101252.83
2023-01-04T04:16:20.442Z,101253.31
2023-01-04T04:18:49.008Z,101259.48
2023-01-04T04:21:17.557Z,101258.56
2023-01-04T04:23:46.425Z,101256.91
2023-01-04T04:26:15.459Z,101262.31
2023-01-04T04:28:44.222Z,101251.64
2023-01-04T04:31:13.786Z,101252.39
2023-01-04T04:33:42.380Z,101244.58
2023-01-04T04:36:12.127Z,101242.94
2023-01-04T04:38:40.678Z,101238.06
2023-01-04T04:41:32.834Z,101223.02
2023-01-04T04:44:01.343Z,101211.55
2023-01-04T04:46:29.961Z,101201.92
2023-01-04T04:48:58.695Z,101186.99
2023-01-04T04:51:27.306Z,101187.59
2023-01-04T04:53:56.191Z,101185.96
2023-01-04T04:56:24.916Z,101181.98
2023-01-04T04:58:53.542Z,101174.90
2023-01-04T05:01:22.287Z,101161.48
2023-01-04T05:03:50.932Z,101152.02
2023-01-04T05:06:19.702Z,101146.99
2023-01-04T05:08:48.235Z,101148.47
2023-01-04T05:11:40.601Z,101147.07
2023-01-04T05:14:10.147Z,101141.92
2023-01-04T05:16:38.833Z,101140.87
2023-01-04T05:19:07.670Z,101139.64
2023-01-04T05:21:36.205Z,101139.45
2023-01-04T05:24:04.969Z,101137.20
2023-01-04T05:26:34.065Z,101137.16
2023-01-04T05:29:02.635Z,101133.56
2023-01-04T05:31:31.233Z,101121.42
2023-01-04T05:33:59.811Z,101118.84
2023-01-04T05:36:28.348Z,101118.65
2023-01-04T05:38:56.937Z,101108.56
2023-01-04T05:41:44.020Z,101105.66
2023-01-04T05:44:12.597Z,101106.00
2023-01-04T05:46:41.106Z,101098.98
2023-01-04T05:49:09.605Z,101097.42
2023-01-04T05:51:38.259Z,101091.27
2023-01-04T05:54:06.837Z,101085.47
2023-01-04T05:56:35.417Z,101079.98
2023-01-04T05:59:04.009Z,101075.73
2023-01-04T06:01:32.634Z,101074.52
2023-01-04T06:04:01.307Z,101076.04
2023-01-04T06:06:29.948Z,101079.62
2023-01-04T06:08:58.567Z,101076.21
2023-01-04T06:11:27.859Z,101073.48
2023-01-04T06:13:56.851Z,101068.69
2023-01-04T06:16:25.432Z,101063.39
2023-01-04T06:18:53.928Z,101067.48
2023-01-04T06:21:22.542Z,101062.17
2023-01-04T06:23:51.576Z,101052.13
2023-01-04T06:26:20.284Z,101044.45
2023-01-04T06:28:49.002Z,101040.36
2023-01-04T06:31:17.534Z,101033.17
2023-01-04T06:33:45.977Z,101024.79
2023-01-04T06:36:19.396Z,101017.09
2023-01-04T06:38:50.163Z,101007.19
2023-01-04T06:41:19.673Z,100999.17
2023-01-04T06:43:49.524Z,100998.66
2023-01-04T06:46:18.131Z,100993.88
2023-01-04T06:48:46.786Z,100993.85
2023-01-04T06:51:15.201Z,100993.70
2023-01-04T06:53:43.707Z,100989.44
2023-01-04T06:56:12.688Z,100986.54
2023-01-04T06:58:41.175Z,100979.37
2023-01-04T07:01:10.102Z,100978.86
2023-01-04T07:03:38.719Z,100970.36
2023-01-04T07:06:08.441Z,100961.52
2023-01-04T07:08:37.063Z,100960.87
2023-01-04T07:11:06.687Z,100963.30
2023-01-04T07:13:35.160Z,100965.41
2023-01-04T07:16:03.730Z,100959.70
2023-01-04T07:18:32.233Z,100961.98
2023-01-04T07:21:00.750Z,100967.16
2023-01-04T07:23:29.210Z,100966.05
2023-01-04T07:26:01.797Z,100966.64
2023-01-04T07:28:49.159Z,100960.06
2023-01-04T07:31:17.763Z,100957.40
2023-01-04T07:33:49.893Z,100953.17
2023-01-04T07:36:18.671Z,100954.75
2023-01-04T07:38:47.593Z,100945.05
2023-01-04T07:41:16.151Z,100938.42
2023-01-04T07:43:46.462Z,100934.04
2023-01-04T07:46:15.004Z,100924.33
2023-01-04T07:48:43.684Z,100914.80
2023-01-04T07:51:12.247Z,100912.88
2023-01-04T07:53:40.828Z,100912.64
2023-01-04T07:56:13.781Z,100905.46
2023-01-04T07:58:47.144Z,100903.18
2023-01-04T08:01:18.728Z,100902.39
2023-01-04T08:03:47.863Z,100899.73
2023-01-04T08:06:17.873Z,100896.52
2023-01-04T08:08:46.622Z,100895.55
2023-01-04T08:11:18.602Z,100889.42
2023-01-04T08:13:47.289Z,100886.20
2023-01-04T08:16:43.308Z,100881.86
2023-01-04T08:19:16.057Z,100872.73
2023-01-04T08:21:45.268Z,100868.14
2023-01-04T08:24:16.422Z,100861.02
2023-01-04T08:26:46.603Z,100858.62
2023-01-04T08:29:15.243Z,100852.63
2023-01-04T08:31:44.081Z,100839.83
2023-01-04T08:34:12.708Z,100826.52
2023-01-04T08:36:50.714Z,100822.02
2023-01-04T08:39:19.470Z,100812.68
2023-01-04T08:41:58.774Z,100805.40
2023-01-04T08:44:29.994Z,100805.36
2023-01-04T08:46:59.237Z,100798.70
2023-01-04T08:49:28.274Z,100788.21
2023-01-04T08:51:57.404Z,100784.58
2023-01-04T08:54:26.027Z,100778.66
2023-01-04T08:56:54.664Z,100772.73
2023-01-04T08:59:23.152Z,100761.80
2023-01-04T09:01:51.911Z,100761.16
2023-01-04T09:04:20.775Z,100756.42
2023-01-04T09:06:49.692Z,100757.48
2023-01-04T09:09:18.212Z,100754.08
2023-01-04T09:11:55.909Z,100744.48
2023-01-04T09:14:24.502Z,100741.55
2023-01-04T09:16:53.074Z,100737.05
2023-01-04T09:19:22.434Z,100733.25
2023-01-04T09:21:51.670Z,100722.24
2023-01-04T09:24:20.335Z,100724.45
2023-01-04T09:26:49.424Z,100716.38
2023-01-04T09:29:17.974Z,100710.20
2023-01-04T09:31:46.693Z,100705.39
2023-01-04T09:34:17.467Z,100699.40
2023-01-04T09:36:48.275Z,100700.10
2023-01-04T09:39:22.322Z,100697.70
2023-01-04T09:42:00.835Z,100688.95
2023-01-04T09:48:04.436Z,100667.96
2023-01-04T09:50:44.852Z,100652.31
2023-01-04T09:53:24.687Z,100642.12
2023-01-04T09:55:57.731Z,100636.60
2023-01-04T09:58:40.492Z,100625.08
2023-01-04T10:01:18.525Z,100607.04
2023-01-04T10:04:11.164Z,100593.27
2023-01-04T10:06:39.941Z,100585.02
2023-01-04T10:09:13.851Z,100578.32
2023-01-04T10:11:57.962Z,100574.53
2023-01-04T10:14:38.604Z,100566.13
2023-01-04T10:17:55.140Z,100562.51
2023-01-04T10:23:25.937Z,100541.80
2023-01-04T10:26:06.571Z,100538.48
2023-01-04T10:29:02.940Z,100532.94
2023-01-04T10:31:42.959Z,100525.00
2023-01-04T10:34:33.834Z,100517.78
2023-01-04T10:37:30.830Z,100510.21
2023-01-04T10:39:59.632Z,100505.58
2023-01-04T10:42:39.121Z,100502.81
2023-01-04T10:45:38.047Z,100496.09
2023-01-04T10:48:18.845Z,100490.38
2023-01-04T10:51:09.824Z,100484.99
2023-01-04T10:53:48.891Z,100477.05
2023-01-04T10:56:46.032Z,100470.86
2023-01-04T10:59:27.100Z,100468.91
2023-01-04T11:02:04.640Z,100459.89
2023-01-04T11:04:49.604Z,100451.77
2023-01-04T11:07:24.198Z,100445.64
2023-01-04T11:10:09.539Z,100440.10
2023-01-04T11:12:38.141Z,100428.52
2023-01-04T11:15:07.442Z,100418.63
2023-01-04T11:17:36.469Z,100413.70
2023-01-04T11:20:05.935Z,100407.27
2023-01-04T11:22:36.910Z,100404.28
2023-01-04T11:28:13.066Z,100391.83
2023-01-04T11:31:23.444Z,100385.44
2023-01-04T11:34:04.042Z,100383.86
2023-01-04T11:36:37.051Z,100376.62
2023-01-04T11:39:23.070Z,100373.85
2023-01-04T11:42:03.388Z,100367.45
2023-01-04T11:44:34.752Z,100366.56
2023-01-04T11:47:24.231Z,100361.17
2023-01-04T11:49:55.968Z,100353.19
2023-01-04T11:52:40.003Z,100345.39
2023-01-04T11:55:38.045Z,100344.66
2023-01-04T11:58:15.324Z,100340.16
2023-01-04T12:00:54.206Z,100339.51
2023-01-04T12:03:32.969Z,100333.48
2023-01-04T12:06:01.636Z,100324.98
2023-01-04T12:08:34.281Z,100319.70
2023-01-04T12:11:35.882Z,100309.95
2023-01-04T12:14:05.765Z,100295.61
2023-01-04T12:16:53.681Z,100285.23
2023-01-04T12:19:22.989Z,100275.65
2023-01-04T12:22:00.806Z,100258.30
2023-01-04T12:24:32.508Z,100250.42
2023-01-04T12:27:02.031Z,100236.23
2023-01-04T12:29:42.904Z,100228.50
2023-01-04T12:32:11.418Z,100222.84
2023-01-04T12:34:47.195Z,100215.79
2023-01-04T12:37:48.805Z,100208.92
2023-01-04T12:40:50.095Z,100200.15
2023-01-04T12:43:26.761Z,100194.13
2023-01-04T12:46:53.050Z,100183.47
2023-01-04T12:49:28.113Z,100173.89
2023-01-04T12:52:37.778Z,100167.71
2023-01-04T12:55:32.753Z,100160.83
2023-01-04T12:58:04.866Z,100153.73
2023-01-04T13:00:51.456Z,100143.41
2023-01-04T13:03:21.730Z,100135.13
2023-01-04T13:06:02.782Z,100140.73
2023-01-04T13:08:40.730Z,100123.85
2023-01-04T13:11:53.222Z,100119.02
2023-01-04T13:14:33.520Z,100109.91
2023-01-04T13:17:26.061Z,100114.66
2023-01-04T13:19:55.727Z,100110.95
2023-01-04T13:22:30.747Z,100094.89
2023-01-04T13:25:03.211Z,100100.90
2023-01-04T13:27:31.724Z,100089.55
2023-01-04T13:30:00.409Z,100085.89
2023-01-04T13:32:46.842Z,100074.36
2023-01-04T13:35:22.897Z,100084.83
2023-01-04T13:37:52.234Z,100081.98
2023-01-04T13:40:28.224Z,100066.79
2023-01-04T13:43:15.447Z,100062.68
2023-01-04T13:45:57.936Z,100062.82
2023-01-04T13:48:37.586Z,100060.84
2023-01-04T13:51:16.669Z,100052.16
2023-01-04T13:54:06.216Z,100047.16
2023-01-04T13:56:35.535Z,100040.73
2023-01-04T13:59:04.203Z,100038.81
2023-01-04T14:01:45.182Z,100038.52
2023-01-04T14:04:25.608Z,100034.22
2023-01-04T14:06:58.096Z,100038.98
2023-01-04T14:09:31.328Z,100035.81
2023-01-04T14:12:08.684Z,100028.88
2023-01-04T14:14:46.982Z,100024.38
2023-01-04T14:17:20.922Z,100022.99
2023-01-04T14:20:25.949Z,100018.29
2023-01-04T14:22:56.817Z,100011.15
2023-01-04T14:25:34.377Z,100006.49
2023-01-04T14:28:27.650Z,100004.08
2023-01-04T14:31:06.865Z,99994.60
2023-01-04T14:33:45.108Z,99990.65
2023-01-04T14:36:27.120Z,99985.61
2023-01-04T14:39:05.536Z,99976.27
2023-01-04T14:42:00.283Z,99959.19
2023-01-04T14:44:31.225Z,99962.08
2023-01-04T14:47:01.889Z,99967.36
2023-01-04T14:49:31.849Z,99965.08
2023-01-04T14:52:10.134Z,99960.02
2023-01-04T14:54:40.077Z,99955.33
2023-01-04T14:57:10.373Z,99950.27
2023-01-04T14:59:38.964Z,99938.51
2023-01-04T15:02:10.827Z,99938.13
2023-01-04T15:04:39.979Z,99927.59
2023-01-04T15:07:31.032Z,99916.70
2023-01-04T15:09:59.658Z,99910.11
2023-01-04T15:12:28.242Z,99909.88
2023-01-04T15:14:56.840Z,99903.31
2023-01-04T15:17:25.546Z,99903.83
2023-01-04T15:23:55.848Z,99884.93
2023-01-04T15:26:24.408Z,99889.58
2023-01-04T15:28:52.987Z,99886.12
2023-01-04T15:31:29.079Z,99889.05
2023-01-04T15:33:59.958Z,99886.94
2023-01-04T15:36:28.562Z,99875.05
2023-01-04T15:38:57.131Z,99864.86
2023-01-04T15:41:44.485Z,99853.99
2023-01-04T15:44:13.516Z,99850.14
2023-01-04T15:46:42.212Z,99851.66
2023-01-04T15:49:16.617Z,99851.75
2023-01-04T15:51:47.259Z,99848.28
2023-01-04T15:54:17.539Z,99844.42
2023-01-04T15:56:46.182Z,99845.27
2023-01-04T15:59:14.906Z,99834.06
2023-01-04T16:01:43.754Z,99838.67
2023-01-04T16:04:12.653Z,99831.23
2023-01-04T16:06:41.967Z,99819.52
2023-01-04T16:09:10.569Z,99820.52
2023-01-04T16:11:59.369Z,99819.91
2023-01-04T16:14:28.043Z,99811.08
2023-01-04T16:16:57.010Z,99813.90
2023-01-04T16:19:25.618Z,99809.00
2023-01-04T16:22:02.464Z,99809.08
2023-01-04T16:25:09.434Z,99803.13
2023-01-04T16:27:20.062Z,99800.81
2023-01-04T16:29:52.930Z,99798.87
2023-01-04T16:32:21.582Z,99791.70
2023-01-04T16:34:51.217Z,99789.05
2023-01-04T16:37:20.421Z,99780.02
2023-01-04T16:40:06.283Z,99782.62
2023-01-04T16:42:37.406Z,99780.25
2023-01-04T16:45:07.408Z,99771.27
2023-01-04T16:47:43.722Z,99769.44
2023-01-04T16:50:13.883Z,99768.88
2023-01-04T16:52:42.782Z,99771.73
2023-01-04T16:55:11.777Z,99767.05
2023-01-04T16:57:40.333Z,99758.44
2023-01-04T17:00:09.526Z,99756.34
2023-01-04T17:02:38.329Z,99755.99
2023-01-04T17:05:07.413Z,99749.48
2023-01-04T17:07:36.058Z,99746.75
2023-01-04T17:10:06.161Z,99744.48
2023-01-04T17:12:50.240Z,99743.26
2023-01-04T17:18:12.690Z,99722.38
2023-01-04T17:20:41.984Z,99729.63
2023-01-04T17:23:11.183Z,99723.08
2023-01-04T17:25:40.213Z,99715.46
2023-01-04T17:28:09.044Z,99720.96
2023-01-04T17:30:41.316Z,99721.76
2023-01-04T17:33:10.387Z,99716.38
2023-01-04T17:35:40.143Z,99714.92
2023-01-04T17:38:09.203Z,99710.73
2023-01-04T17:40:38.105Z,99708.28
2023-01-04T17:43:07.217Z,99708.05
2023-01-04T17:45:36.252Z,99692.95
2023-01-04T17:48:06.133Z,99689.38
2023-01-04T17:50:35.328Z,99686.52
2023-01-04T17:53:04.522Z,99681.25
2023-01-04T17:55:34.760Z,99684.42
2023-01-04T17:58:07.816Z,99675.46
2023-01-04T18:03:14.205Z,99667.11
2023-01-04T18:06:07.087Z,99664.79
2023-01-04T18:08:43.396Z,99660.42
2023-01-04T18:11:16.805Z,99654.64
2023-01-04T18:13:48.032Z,99649.03
2023-01-04T18:16:26.142Z,99646.38
2023-01-04T18:19:01.795Z,99646.44
2023-01-04T18:21:31.661Z,99641.52
2023-01-04T18:27:20.365Z,99631.35
2023-01-04T18:29:42.455Z,99626.79
2023-01-04T18:32:13.663Z,99624.69
2023-01-04T18:34:43.667Z,99625.52
2023-01-04T18:37:14.642Z,99624.09
2023-01-04T18:39:44.841Z,99619.05
2023-01-04T18:42:14.745Z,99609.73
2023-01-04T18:44:48.462Z,99611.52
2023-01-04T18:47:20.964Z,99603.48
2023-01-04T18:49:54.072Z,99603.59
2023-01-04T18:52:23.518Z,99602.30
2023-01-04T18:54:53.537Z,99592.41
2023-01-04T18:57:38.644Z,99578.87
2023-01-04T19:00:11.811Z,99572.10
2023-01-04T19:02:41.717Z,99571.02
2023-01-04T19:05:13.014Z,99567.46
2023-01-04T19:07:43.896Z,99570.80
2023-01-04T19:10:13.723Z,99564.54
2023-01-04T19:12:44.522Z,99569.27
2023-01-04T19:15:13.362Z,99565.77
2023-01-04T19:17:42.831Z,99564.14
2023-01-04T19:20:12.461Z,99555.11
2023-01-04T19:22:42.082Z,99554.35
2023-01-04T19:25:13.086Z,99553.08
2023-01-04T19:27:43.096Z,99552.84
2023-01-04T19:30:13.943Z,99547.45
2023-01-04T19:32:45.801Z,99542.75
2023-01-04T19:35:40.391Z,99544.60
2023-01-04T19:45:55.414Z,99539.18
2023-01-04T19:48:25.422Z,99538.56
2023-01-04T19:51:08.862Z,99531.56
2023-01-04T19:53:38.471Z,99526.80
2023-01-04T19:56:09.545Z,99517.94
2023-01-04T19:58:39.594Z,99512.35
2023-01-04T20:01:17.461Z,99506.05
2023-01-04T20:03:48.178Z,99508.33
2023-01-04T20:06:19.333Z,99507.34
2023-01-04T20:08:49.878Z,99499.13
2023-01-04T20:11:20.303Z,99493.16
2023-01-04T20:13:50.031Z,99497.60
2023-01-04T20:16:20.648Z,99495.23
2023-01-04T20:18:56.366Z,99488.98
2023-01-04T20:21:26.375Z,99490.44
2023-01-04T20:23:55.883Z,99485.57
2023-01-04T20:26:25.552Z,99475.46
2023-01-04T20:28:57.612Z,99476.23
2023-01-04T20:31:26.975Z,99474.78
2023-01-04T20:33:56.908Z,99472.14
2023-01-04T20:36:30.626Z,99469.34
2023-01-04T20:39:03.383Z,99463.66
2023-01-04T20:41:35.900Z,99463.27
2023-01-04T20:44:05.753Z,99465.23
2023-01-04T20:46:36.657Z,99461.35
2023-01-04T20:49:07.945Z,99451.64
2023-01-04T20:51:37.504Z,99446.59
2023-01-04T20:54:07.039Z,99447.05
2023-01-04T20:56:39.809Z,99441.30
2023-01-04T20:59:10.218Z,99446.80
2023-01-04T21:01:40.037Z,99442.28
2023-01-04T21:04:10.608Z,99443.39
2023-01-04T21:06:39.968Z,99451.94
2023-01-04T21:09:10.160Z,99439.10
2023-01-04T21:11:39.604Z,99435.71
2023-01-04T21:14:12.384Z,99441.36
2023-01-04T21:16:42.157Z,99433.03
2023-01-04T21:19:11.217Z,99435.70
2023-01-04T21:21:40.606Z,99432.02
2023-01-04T21:24:10.729Z,99428.49
2023-01-04T21:26:39.915Z,99425.36
2023-01-04T21:29:09.190Z,99422.23
2023-01-04T21:31:38.708Z,99418.56
2023-01-04T21:34:13.586Z,99410.42
2023-01-04T21:36:44.005Z,99408.17
2023-01-04T21:39:13.184Z,99409.57
2023-01-04T21:41:47.691Z,99405.73
2023-01-04T21:44:17.346Z,99405.58
2023-01-04T21:46:46.830Z,99401.29
2023-01-04T21:49:15.683Z,99397.35
2023-01-04T21:51:44.312Z,99399.80
2023-01-04T21:54:13.061Z,99396.19
2023-01-04T21:56:41.707Z,99397.43
2023-01-04T21:59:10.323Z,99393.14
2023-01-04T22:01:39.530Z,99388.24
2023-01-04T22:04:08.163Z,99389.77
2023-01-04T22:06:40.662Z,99383.49
2023-01-04T22:09:09.370Z,99379.33
2023-01-04T22:11:37.874Z,99376.55
2023-01-04T22:14:06.576Z,99370.94
2023-01-04T22:16:35.212Z,99361.71
2023-01-04T22:19:03.798Z,99357.41
2023-01-04T22:21:32.722Z,99355.60
2023-01-04T22:24:01.415Z,99352.56
2023-01-04T22:26:29.932Z,99351.71
2023-01-04T22:28:58.520Z,99347.27
2023-01-04T22:31:27.306Z,99341.82
2023-01-04T22:33:56.452Z,99334.80
2023-01-04T22:36:25.059Z,99333.36
2023-01-04T22:38:55.171Z,99327.81
2023-01-04T22:41:26.617Z,99322.77
2023-01-04T22:43:57.426Z,99316.00
2023-01-04T22:46:31.591Z,99319.05
2023-01-04T22:49:01.039Z,99312.78
2023-01-04T22:51:31.283Z,99314.06
2023-01-04T22:54:02.417Z,99313.46
2023-01-04T22:56:30.998Z,99308.86
2023-01-04T22:58:59.817Z,99307.80
2023-01-04T23:01:31.779Z,99313.84
2023-01-04T23:04:01.977Z,99308.15
2023-01-04T23:06:32.005Z,99304.72
2023-01-04T23:09:06.592Z,99301.95
2023-01-04T23:11:36.733Z,99309.38
2023-01-04T23:14:07.267Z,99312.38
2023-01-04T23:16:35.932Z,99316.39
2023-01-04T23:19:06.419Z,99319.33
2023-01-04T23:21:35.550Z,99318.63
2023-01-04T23:24:05.163Z,99316.35
2023-01-04T23:26:34.201Z,99306.52
2023-01-04T23:29:03.321Z,99295.73
2023-01-04T23:31:32.963Z,99293.80
2023-01-04T23:34:03.818Z,99287.46
2023-01-04T23:36:38.938Z,99288.35
2023-01-04T23:39:12.067Z,99287.95
2023-01-04T23:41:47.901Z,99292.60
2023-01-04T23:44:19.439Z,99282.20
2023-01-04T23:49:36.051Z,99281.09
2023-01-04T23:52:05.950Z,99279.63
2023-01-04T23:54:35.345Z,99279.95
2023-01-04T23:57:04.748Z,99273.27
2023-01-04T23:59:33.318Z,99268.73
